createdAt,value
2018-03-27T00:01:21.257Z,32.50
2018-03-27T00:03:49.499Z,34.65
2018-03-27T00:06:16.982Z,32.22
2018-03-27T00:08:45.210Z,33.08
2018-03-27T00:11:12.692Z,34.97
2018-03-27T00:13:40.154Z,30.83
2018-03-27T00:16:07.655Z,32.80
2018-03-27T00:18:35.140Z,28.55
2018-03-27T00:21:02.636Z,31.33
2018-03-27T00:23:30.176Z,30.00
2018-03-27T00:25:57.775Z,28.62
2018-03-27T00:28:38.058Z,35.38
2018-03-27T00:31:17.605Z,28.15
2018-03-27T00:33:57.002Z,29.83
2018-03-27T00:36:37.243Z,32.30
2018-03-27T00:39:16.602Z,30.25
2018-03-27T00:44:55.689Z,30.45
2018-03-27T00:47:23.196Z,33.30
2018-03-27T00:49:50.698Z,29.42
2018-03-27T00:52:18.163Z,29.67
2018-03-27T00:54:45.641Z,29.23
2018-03-27T00:57:13.105Z,32.55
2018-03-27T00:59:40.588Z,31.42
2018-03-27T01:02:08.055Z,34.67
2018-03-27T01:04:36.309Z,34.53
2018-03-27T01:07:03.774Z,32.50
2018-03-27T01:09:31.258Z,33.60
2018-03-27T01:11:59.476Z,34.10
2018-03-27T01:14:26.980Z,35.45
2018-03-27T01:16:55.214Z,33.25
2018-03-27T01:19:22.669Z,31.05
2018-03-27T01:21:50.164Z,29.10
2018-03-27T01:24:19.167Z,28.67
2018-03-27T01:26:47.397Z,29.20
2018-03-27T01:29:14.871Z,28.62
2018-03-27T01:31:42.354Z,24.87
2018-03-27T01:34:09.833Z,30.33
2018-03-27T01:36:37.319Z,26.23
2018-03-27T01:39:05.749Z,32.35
2018-03-27T01:41:34.001Z,33.78
2018-03-27T01:44:01.487Z,31.98
2018-03-27T01:46:28.991Z,23.55
2018-03-27T01:48:56.446Z,26.75
2018-03-27T01:51:23.922Z,20.48
2018-03-27T01:53:51.369Z,23.42
2018-03-27T01:56:18.861Z,28.25
2018-03-27T01:58:46.339Z,27.67
2018-03-27T02:01:13.847Z,27.10
2018-03-27T02:03:41.350Z,29.25
2018-03-27T02:06:09.698Z,28.80
2018-03-27T02:08:37.159Z,31.50
2018-03-27T02:11:10.266Z,27.52
2018-03-27T02:13:43.378Z,27.45
2018-03-27T02:16:17.263Z,30.62
2018-03-27T02:18:50.523Z,28.12
2018-03-27T02:21:23.848Z,33.72
2018-03-27T02:23:51.970Z,29.10
2018-03-27T02:26:19.450Z,30.85
2018-03-27T02:28:46.964Z,36.88
2018-03-27T02:31:14.503Z,28.25
2018-03-27T02:33:41.978Z,29.02
2018-03-27T02:36:09.434Z,29.48
2018-03-27T02:38:36.942Z,31.65
2018-03-27T02:41:04.403Z,34.88
2018-03-27T02:43:31.890Z,30.83
2018-03-27T02:46:00.135Z,33.05
2018-03-27T02:48:27.626Z,31.87
2018-03-27T02:50:55.883Z,31.08
2018-03-27T02:53:23.386Z,34.55
2018-03-27T02:55:50.851Z,33.38
2018-03-27T02:58:18.334Z,32.80
2018-03-27T03:00:45.811Z,35.55
2018-03-27T03:03:13.269Z,26.95
2018-03-27T03:05:41.534Z,35.10
2018-03-27T03:08:08.991Z,35.50
2018-03-27T03:10:36.473Z,28.98
2018-03-27T03:13:03.949Z,32.50
2018-03-27T03:15:32.190Z,34.92
2018-03-27T03:17:59.657Z,33.88
2018-03-27T03:20:27.144Z,33.30
2018-03-27T03:22:55.406Z,31.20
2018-03-27T03:25:22.906Z,33.55
2018-03-27T03:27:50.391Z,31.98
2018-03-27T03:30:17.863Z,36.40
2018-03-27T03:32:45.328Z,35.47
2018-03-27T03:35:12.827Z,31.10
2018-03-27T03:37:40.319Z,34.45
2018-03-27T03:40:07.776Z,28.90
2018-03-27T03:42:35.281Z,29.37
2018-03-27T03:45:03.493Z,36.42
2018-03-27T03:47:30.961Z,34.55
2018-03-27T03:49:58.429Z,36.83
2018-03-27T03:52:25.907Z,33.20
2018-03-27T03:54:53.385Z,36.33
2018-03-27T03:57:21.635Z,37.45
2018-03-27T03:59:49.083Z,37.38
2018-03-27T04:02:16.561Z,33.38
2018-03-27T04:04:44.046Z,37.03
2018-03-27T04:07:11.525Z,34.58
2018-03-27T04:09:39.031Z,32.63
2018-03-27T04:12:06.518Z,33.35
2018-03-27T04:14:33.972Z,34.25
2018-03-27T04:17:02.218Z,34.15
2018-03-27T04:19:29.683Z,31.70
2018-03-27T04:21:57.168Z,31.27
2018-03-27T04:24:24.622Z,32.35
2018-03-27T04:26:52.882Z,30.62
2018-03-27T04:29:21.114Z,33.70
2018-03-27T04:31:48.587Z,32.22
2018-03-27T04:34:16.065Z,29.52
2018-03-27T04:36:43.530Z,32.92
2018-03-27T04:39:11.784Z,33.08
2018-03-27T04:41:39.262Z,31.67
2018-03-27T04:44:06.735Z,29.90
2018-03-27T04:46:34.970Z,30.85
2018-03-27T04:49:02.541Z,31.50
2018-03-27T04:51:30.040Z,31.52
2018-03-27T04:53:57.504Z,30.85
2018-03-27T04:56:24.987Z,30.45
2018-03-27T04:58:52.474Z,28.80
2018-03-27T05:01:19.943Z,30.30
2018-03-27T05:03:47.446Z,30.05
2018-03-27T05:06:14.911Z,33.17
2018-03-27T05:08:42.387Z,30.62
2018-03-27T05:11:09.878Z,29.35
2018-03-27T05:13:37.345Z,30.20
2018-03-27T05:16:05.581Z,30.95
2018-03-27T05:18:33.081Z,29.80
2018-03-27T05:21:01.301Z,30.75
2018-03-27T05:23:28.800Z,29.23
2018-03-27T05:25:56.273Z,28.45
2018-03-27T05:28:24.503Z,28.40
2018-03-27T05:30:51.996Z,25.90
2018-03-27T05:33:19.459Z,28.55
2018-03-27T05:35:47.744Z,29.23
2018-03-27T05:38:16.205Z,29.15
2018-03-27T05:40:43.717Z,28.35
2018-03-27T05:43:11.165Z,27.20
2018-03-27T05:45:38.659Z,27.62
2018-03-27T05:48:06.136Z,28.00
2018-03-27T05:50:33.644Z,30.27
2018-03-27T05:53:01.121Z,28.02
2018-03-27T05:55:28.583Z,29.35
2018-03-27T05:57:56.074Z,27.20
2018-03-27T06:00:24.351Z,28.45
2018-03-27T06:02:52.567Z,27.17
2018-03-27T06:05:20.026Z,28.30
2018-03-27T06:07:47.499Z,25.90
2018-03-27T06:10:14.980Z,27.83
2018-03-27T06:12:42.475Z,28.83
2018-03-27T06:15:10.694Z,28.55
2018-03-27T06:17:38.270Z,27.65
2018-03-27T06:20:06.510Z,27.37
2018-03-27T06:22:33.996Z,27.35
2018-03-27T06:25:01.464Z,26.83
2018-03-27T06:27:29.723Z,26.48
2018-03-27T06:29:57.228Z,30.98
2018-03-27T06:32:25.480Z,28.20
2018-03-27T06:34:52.964Z,26.02
2018-03-27T06:37:21.182Z,25.60
2018-03-27T06:39:48.675Z,24.55
2018-03-27T06:42:16.216Z,24.60
2018-03-27T06:44:43.665Z,22.85
2018-03-27T06:47:11.148Z,28.83
2018-03-27T06:49:39.370Z,30.75
2018-03-27T06:52:06.866Z,30.20
2018-03-27T06:54:34.341Z,27.58
2018-03-27T06:57:01.825Z,31.92
2018-03-27T06:59:29.283Z,29.85
2018-03-27T07:01:56.922Z,26.25
2018-03-27T07:04:24.377Z,26.25
2018-03-27T07:06:52.637Z,25.95
2018-03-27T07:09:20.129Z,29.60
2018-03-27T07:11:47.619Z,26.90
2018-03-27T07:14:15.129Z,25.40
2018-03-27T07:16:42.590Z,24.45
2018-03-27T07:19:10.839Z,25.98
2018-03-27T07:21:38.434Z,27.35
2018-03-27T07:24:06.689Z,25.70
2018-03-27T07:26:34.155Z,27.27
2018-03-27T07:29:01.702Z,26.30
2018-03-27T07:31:29.195Z,26.90
2018-03-27T07:33:56.703Z,25.73
2018-03-27T07:36:24.199Z,26.65
2018-03-27T07:38:52.429Z,26.05
2018-03-27T07:41:19.923Z,26.30
2018-03-27T07:43:47.377Z,25.70
2018-03-27T07:46:14.862Z,26.30
2018-03-27T07:48:42.392Z,26.37
2018-03-27T07:51:09.878Z,29.08
2018-03-27T07:53:37.339Z,23.35
2018-03-27T07:56:04.830Z,27.23
2018-03-27T07:58:32.320Z,26.83
2018-03-27T08:00:59.798Z,26.48
2018-03-27T08:03:28.056Z,26.83
2018-03-27T08:05:57.051Z,24.25
2018-03-27T08:08:24.570Z,20.77
2018-03-27T08:10:52.050Z,22.15
2018-03-27T08:13:19.552Z,24.70
2018-03-27T08:15:47.036Z,21.10
2018-03-27T08:18:14.536Z,22.70
2018-03-27T08:20:42.005Z,23.93
2018-03-27T08:23:10.345Z,22.33
2018-03-27T08:25:37.806Z,22.87
2018-03-27T08:28:05.338Z,25.20
2018-03-27T08:30:32.797Z,24.00
2018-03-27T08:33:00.380Z,24.27
2018-03-27T08:35:27.885Z,25.47
2018-03-27T08:37:56.113Z,22.87
2018-03-27T08:40:23.592Z,20.80
2018-03-27T08:42:51.075Z,20.97
2018-03-27T08:45:18.564Z,18.80
2018-03-27T08:47:46.078Z,18.77
2018-03-27T08:50:14.365Z,21.40
2018-03-27T08:52:42.618Z,17.97
2018-03-27T08:55:10.112Z,16.17
2018-03-27T08:57:37.573Z,18.23
2018-03-27T09:00:05.134Z,17.63
2018-03-27T09:02:32.569Z,19.47
2018-03-27T09:05:00.050Z,19.48
2018-03-27T09:07:27.545Z,19.87
2018-03-27T09:09:55.050Z,22.57
2018-03-27T09:12:23.322Z,23.73
2018-03-27T09:14:51.573Z,22.73
2018-03-27T09:17:20.580Z,22.60
2018-03-27T09:19:48.047Z,22.00
2018-03-27T09:22:15.592Z,21.17
2018-03-27T09:24:43.065Z,23.73
2018-03-27T09:27:11.349Z,21.77
2018-03-27T09:29:38.822Z,18.13
2018-03-27T09:32:06.307Z,19.47
2018-03-27T09:34:33.793Z,19.77
2018-03-27T09:37:01.267Z,18.70
2018-03-27T09:39:28.784Z,19.40
2018-03-27T09:41:56.242Z,19.03
2018-03-27T09:44:23.734Z,17.37
2018-03-27T09:46:51.206Z,20.03
2018-03-27T09:49:19.458Z,18.77
2018-03-27T09:51:46.933Z,18.33
2018-03-27T09:54:14.426Z,17.77
2018-03-27T09:56:41.932Z,18.57
2018-03-27T09:59:09.424Z,19.13
2018-03-27T10:01:39.800Z,17.47
2018-03-27T10:04:07.308Z,17.23
2018-03-27T10:06:35.542Z,17.27
2018-03-27T10:09:03.769Z,17.80
2018-03-27T10:11:31.278Z,19.03
2018-03-27T10:13:58.742Z,17.90
2018-03-27T10:16:26.284Z,18.60
2018-03-27T10:18:53.762Z,17.13
2018-03-27T10:21:21.254Z,16.83
2018-03-27T10:23:48.728Z,14.43
2018-03-27T10:26:16.231Z,15.37
2018-03-27T10:28:43.701Z,16.47
2018-03-27T10:31:11.188Z,15.30
2018-03-27T10:33:39.437Z,16.93
2018-03-27T10:36:06.925Z,14.60
2018-03-27T10:38:35.189Z,17.53
2018-03-27T10:41:03.440Z,16.47
2018-03-27T10:43:30.959Z,16.63
2018-03-27T10:45:58.419Z,14.47
2018-03-27T10:48:25.907Z,15.57
2018-03-27T10:50:53.476Z,15.80
2018-03-27T10:53:20.972Z,15.63
2018-03-27T10:55:48.473Z,16.57
2018-03-27T10:58:15.969Z,14.33
2018-03-27T11:00:44.237Z,14.00
2018-03-27T11:03:11.729Z,13.97
2018-03-27T11:05:39.225Z,13.07
2018-03-27T11:08:06.700Z,13.13
2018-03-27T11:10:34.193Z,13.77
2018-03-27T11:13:02.492Z,12.17
2018-03-27T11:15:30.003Z,12.63
2018-03-27T11:17:57.467Z,12.03
2018-03-27T11:20:24.955Z,12.57
2018-03-27T11:22:52.458Z,13.23
2018-03-27T11:25:19.938Z,13.43
2018-03-27T11:27:48.588Z,12.80
2018-03-27T11:30:16.084Z,12.17
2018-03-27T11:32:45.267Z,12.10
2018-03-27T11:35:12.758Z,11.90
2018-03-27T11:37:41.038Z,11.93
2018-03-27T11:40:08.521Z,12.17
2018-03-27T11:42:35.996Z,12.00
2018-03-27T11:45:03.481Z,12.30
2018-03-27T11:47:30.978Z,12.60
2018-03-27T11:49:59.645Z,11.97
2018-03-27T11:52:27.130Z,11.93
2018-03-27T11:54:54.625Z,12.10
2018-03-27T11:57:22.121Z,12.10
2018-03-27T11:59:49.622Z,11.43
2018-03-27T12:02:17.113Z,10.53
2018-03-27T12:04:44.601Z,10.83
2018-03-27T12:07:12.103Z,11.47
2018-03-27T12:09:39.587Z,11.50
2018-03-27T12:12:07.074Z,10.80
2018-03-27T12:14:34.604Z,10.53
2018-03-27T12:17:02.098Z,8.67
2018-03-27T12:19:29.571Z,13.00
2018-03-27T12:21:57.086Z,10.27
2018-03-27T12:24:24.554Z,11.80
2018-03-27T12:26:52.819Z,11.60
2018-03-27T12:29:20.296Z,10.73
2018-03-27T12:31:48.555Z,11.33
2018-03-27T12:34:16.783Z,11.40
2018-03-27T12:36:44.293Z,13.00
2018-03-27T12:39:11.753Z,12.53
2018-03-27T12:41:40.018Z,12.63
2018-03-27T12:44:07.502Z,13.90
2018-03-27T12:46:35.722Z,12.13
2018-03-27T12:49:03.234Z,11.90
2018-03-27T12:51:31.511Z,11.67
2018-03-27T12:53:59.757Z,12.23
2018-03-27T12:56:27.226Z,11.37
2018-03-27T12:58:54.756Z,11.17
2018-03-27T13:01:23.384Z,11.47
2018-03-27T13:03:51.641Z,11.80
2018-03-27T13:06:19.132Z,11.47
2018-03-27T13:08:46.610Z,14.50
2018-03-27T13:11:14.121Z,34.40
2018-03-27T13:13:41.618Z,12.67
2018-03-27T13:16:09.211Z,23.43
2018-03-27T13:18:36.716Z,19.30
2018-03-27T13:21:04.987Z,24.00
2018-03-27T13:23:33.275Z,15.30
2018-03-27T13:26:00.742Z,14.67
2018-03-27T13:28:28.206Z,12.97
2018-03-27T13:30:55.760Z,14.67
2018-03-27T13:33:23.238Z,14.50
2018-03-27T13:35:50.749Z,16.03
2018-03-27T13:38:18.988Z,15.33
2018-03-27T13:40:46.482Z,14.93
2018-03-27T13:43:13.976Z,12.50
2018-03-27T13:45:41.487Z,11.97
2018-03-27T13:48:09.014Z,12.50
2018-03-27T13:50:36.478Z,13.37
2018-03-27T13:53:03.969Z,13.60
2018-03-27T13:55:32.221Z,13.50
2018-03-27T13:57:59.810Z,12.03
2018-03-27T14:00:28.059Z,12.93
2018-03-27T14:02:55.567Z,12.47
2018-03-27T14:05:23.054Z,12.60
2018-03-27T14:07:50.531Z,12.57
2018-03-27T14:10:18.036Z,12.77
2018-03-27T14:12:46.278Z,13.33
2018-03-27T14:15:15.305Z,12.70
2018-03-27T14:17:42.806Z,12.70
2018-03-27T14:20:10.288Z,11.67
2018-03-27T14:22:37.783Z,12.73
2018-03-27T14:25:05.274Z,12.43
2018-03-27T14:27:32.734Z,11.00
2018-03-27T14:30:00.257Z,11.73
2018-03-27T14:32:28.501Z,12.10
2018-03-27T14:34:56.036Z,12.97
2018-03-27T14:37:23.507Z,15.53
2018-03-27T14:39:51.014Z,17.67
2018-03-27T14:42:18.506Z,12.47
2018-03-27T14:44:45.967Z,13.73
2018-03-27T14:47:13.502Z,13.30
2018-03-27T14:49:40.985Z,13.97
2018-03-27T14:52:08.451Z,16.00
2018-03-27T14:54:35.949Z,14.93
2018-03-27T14:57:04.178Z,15.23
2018-03-27T14:59:31.714Z,12.63
2018-03-27T15:01:59.198Z,13.37
2018-03-27T15:04:26.698Z,13.83
2018-03-27T15:06:54.972Z,12.17
2018-03-27T15:09:23.248Z,24.27
2018-03-27T15:11:51.555Z,17.10
2018-03-27T15:14:19.056Z,22.67
2018-03-27T15:16:46.557Z,12.97
2018-03-27T15:19:14.067Z,12.13
2018-03-27T15:21:41.540Z,31.50
2018-03-27T15:24:09.030Z,12.80
2018-03-27T15:26:36.541Z,23.50
2018-03-27T15:29:04.024Z,13.20
2018-03-27T15:31:32.293Z,12.70
2018-03-27T15:33:59.756Z,11.73
2018-03-27T15:36:28.080Z,11.73
2018-03-27T15:38:55.570Z,11.57
2018-03-27T15:41:23.073Z,11.20
2018-03-27T15:43:50.591Z,11.33
2018-03-27T15:46:18.093Z,12.30
2018-03-27T15:48:45.600Z,11.37
2018-03-27T15:51:13.077Z,12.90
2018-03-27T15:53:40.701Z,12.93
2018-03-27T15:56:08.198Z,12.10
2018-03-27T15:58:35.692Z,13.47
2018-03-27T16:01:03.219Z,13.20
2018-03-27T16:03:30.786Z,13.77
2018-03-27T16:05:58.452Z,13.20
2018-03-27T16:08:26.760Z,15.10
2018-03-27T16:10:54.280Z,13.20
2018-03-27T16:13:21.909Z,13.03
2018-03-27T16:15:50.228Z,12.10
2018-03-27T16:18:18.482Z,12.57
2018-03-27T16:20:45.998Z,14.73
2018-03-27T16:23:13.614Z,13.23
2018-03-27T16:25:41.862Z,12.30
2018-03-27T16:28:09.364Z,12.60
2018-03-27T16:30:36.880Z,12.73
2018-03-27T16:33:04.867Z,13.60
2018-03-27T16:35:33.349Z,13.57
2018-03-27T16:38:01.636Z,13.17
2018-03-27T16:40:29.876Z,16.13
2018-03-27T16:42:57.418Z,13.63
2018-03-27T16:45:24.967Z,12.97
2018-03-27T16:47:52.520Z,13.67
2018-03-27T16:50:19.994Z,16.63
2018-03-27T16:52:47.541Z,12.10
2018-03-27T16:55:15.048Z,14.00
2018-03-27T16:57:42.528Z,12.50
2018-03-27T17:00:10.827Z,13.53
2018-03-27T17:02:38.363Z,13.10
2018-03-27T17:05:07.420Z,16.17
2018-03-27T17:07:34.894Z,15.17
2018-03-27T17:10:02.390Z,16.00
2018-03-27T17:12:29.921Z,26.00
2018-03-27T17:14:57.428Z,13.63
2018-03-27T17:17:24.925Z,13.53
2018-03-27T17:19:52.441Z,11.67
2018-03-27T17:22:19.949Z,13.10
2018-03-27T17:24:47.499Z,12.17
2018-03-27T17:27:14.977Z,13.63
2018-03-27T17:29:42.453Z,13.47
2018-03-27T17:32:10.763Z,12.60
2018-03-27T17:34:38.257Z,13.60
2018-03-27T17:37:05.817Z,12.93
2018-03-27T17:39:33.355Z,14.87
2018-03-27T17:42:00.910Z,11.90
2018-03-27T17:44:28.419Z,12.55
2018-03-27T17:46:55.927Z,13.35
2018-03-27T17:49:23.471Z,12.88
2018-03-27T17:51:50.972Z,12.07
2018-03-27T17:54:18.502Z,11.82
2018-03-27T17:56:45.990Z,11.82
2018-03-27T17:59:13.571Z,11.57
2018-03-27T18:01:41.817Z,18.55
2018-03-27T18:04:09.370Z,12.32
2018-03-27T18:06:36.984Z,11.10
2018-03-27T18:09:04.526Z,12.50
2018-03-27T18:11:32.043Z,11.85
2018-03-27T18:13:59.555Z,11.82
2018-03-27T18:16:27.069Z,11.63
2018-03-27T18:18:54.590Z,12.00
2018-03-27T18:21:22.110Z,13.00
2018-03-27T18:23:51.307Z,16.62
2018-03-27T18:26:19.619Z,12.88
2018-03-27T18:28:47.156Z,14.50
2018-03-27T18:31:15.520Z,21.27
2018-03-27T18:33:43.052Z,17.17
2018-03-27T18:36:10.533Z,21.55
2018-03-27T18:38:38.065Z,14.68
2018-03-27T18:41:05.604Z,14.43
2018-03-27T18:43:33.128Z,13.43
2018-03-27T18:46:00.706Z,14.80
2018-03-27T18:48:28.431Z,14.45
2018-03-27T18:50:55.945Z,16.95
2018-03-27T18:53:24.176Z,19.48
2018-03-27T18:55:51.742Z,13.65
2018-03-27T18:58:20.028Z,15.43
2018-03-27T19:00:48.290Z,19.48
2018-03-27T19:03:16.559Z,11.88
2018-03-27T19:05:44.083Z,14.13
2018-03-27T19:08:11.756Z,12.55
2018-03-27T19:10:39.305Z,12.50
2018-03-27T19:13:06.823Z,15.52
2018-03-27T19:15:34.347Z,14.02
2018-03-27T19:18:03.288Z,13.15
2018-03-27T19:20:30.802Z,13.48
2018-03-27T19:22:58.440Z,13.80
2018-03-27T19:25:25.946Z,13.68
2018-03-27T19:27:54.230Z,12.70
2018-03-27T19:30:21.733Z,13.15
2018-03-27T19:32:49.228Z,11.55
2018-03-27T19:35:17.486Z,11.75
2018-03-27T19:37:45.043Z,12.23
2018-03-27T19:40:12.522Z,11.40
2018-03-27T19:42:40.824Z,11.60
2018-03-27T19:45:08.297Z,12.10
2018-03-27T19:47:35.822Z,11.90
2018-03-27T19:50:04.101Z,13.85
2018-03-27T19:52:32.418Z,14.70
2018-03-27T19:54:59.978Z,13.27
2018-03-27T19:57:27.453Z,13.40
2018-03-27T19:59:54.992Z,23.33
2018-03-27T20:02:22.500Z,13.75
2018-03-27T20:04:51.497Z,16.48
2018-03-27T20:07:18.957Z,13.90
2018-03-27T20:09:47.446Z,15.75
2018-03-27T20:12:14.970Z,16.77
2018-03-27T20:14:42.526Z,13.18
2018-03-27T20:17:09.996Z,15.15
2018-03-27T20:19:37.472Z,14.27
2018-03-27T20:22:05.739Z,15.70
2018-03-27T20:24:33.274Z,16.17
2018-03-27T20:27:00.794Z,14.48
2018-03-27T20:29:28.288Z,13.65
2018-03-27T20:31:56.247Z,15.43
2018-03-27T20:34:23.733Z,15.45
2018-03-27T20:36:51.251Z,14.77
2018-03-27T20:39:18.729Z,14.95
2018-03-27T20:41:46.218Z,15.10
2018-03-27T20:44:14.488Z,13.85
2018-03-27T20:46:41.966Z,14.38
2018-03-27T20:49:10.308Z,15.85
2018-03-27T20:51:37.795Z,15.55
2018-03-27T20:54:05.294Z,18.42
2018-03-27T20:56:32.785Z,15.32
2018-03-27T20:59:00.278Z,17.58
2018-03-27T21:01:29.352Z,18.77
2018-03-27T21:03:56.843Z,19.37
2018-03-27T21:06:24.351Z,18.37
2018-03-27T21:08:51.869Z,20.00
2018-03-27T21:11:19.351Z,17.95
2018-03-27T21:13:46.952Z,17.00
2018-03-27T21:16:14.471Z,18.25
2018-03-27T21:18:41.932Z,19.92
2018-03-27T21:21:09.490Z,20.12
2018-03-27T21:23:37.720Z,18.52
2018-03-27T21:26:05.989Z,20.83
2018-03-27T21:28:34.242Z,19.30
2018-03-27T21:31:01.730Z,18.70
2018-03-27T21:33:29.962Z,18.10
2018-03-27T21:35:57.556Z,22.08
2018-03-27T21:38:25.812Z,18.10
2018-03-27T21:40:53.334Z,20.42
2018-03-27T21:43:20.817Z,22.33
2018-03-27T21:45:49.078Z,21.42
2018-03-27T21:48:16.578Z,21.92
2018-03-27T21:50:44.040Z,23.23
2018-03-27T21:53:11.548Z,21.67
2018-03-27T21:55:39.104Z,22.80
2018-03-27T21:58:06.608Z,22.73
2018-03-27T22:00:34.120Z,21.77
2018-03-27T22:03:01.619Z,25.48
2018-03-27T22:05:29.105Z,24.45
2018-03-27T22:07:57.600Z,23.17
2018-03-27T22:10:25.097Z,20.52
2018-03-27T22:12:52.572Z,27.13
2018-03-27T22:15:20.074Z,29.95
2018-03-27T22:17:47.545Z,22.35
2018-03-27T22:20:15.044Z,20.37
2018-03-27T22:22:42.520Z,23.65
2018-03-27T22:25:10.771Z,22.48
2018-03-27T22:27:38.247Z,25.33
2018-03-27T22:30:05.742Z,21.25
2018-03-27T22:32:33.219Z,22.77
2018-03-27T22:35:00.711Z,24.27
2018-03-27T22:37:28.187Z,21.17
2018-03-27T22:39:56.411Z,25.17
2018-03-27T22:42:23.971Z,23.45
2018-03-27T22:44:51.454Z,26.87
2018-03-27T22:47:18.933Z,26.42
2018-03-27T22:49:46.416Z,26.42
2018-03-27T22:52:14.684Z,23.85
2018-03-27T22:54:42.907Z,24.75
2018-03-27T22:57:10.447Z,29.70
2018-03-27T22:59:37.958Z,26.83
2018-03-27T23:02:05.478Z,24.58
2018-03-27T23:04:32.977Z,26.27
2018-03-27T23:07:00.431Z,27.30
2018-03-27T23:09:27.957Z,25.55
2018-03-27T23:11:55.435Z,24.45
2018-03-27T23:14:22.917Z,25.90
2018-03-27T23:16:50.375Z,24.65
2018-03-27T23:19:18.624Z,22.45
2018-03-27T23:21:46.098Z,23.42
2018-03-27T23:24:13.590Z,22.52
2018-03-27T23:26:41.109Z,23.73
2018-03-27T23:29:08.663Z,23.30
2018-03-27T23:31:36.189Z,23.83
2018-03-27T23:34:03.650Z,23.50
2018-03-27T23:36:31.138Z,24.45
2018-03-27T23:41:33.220Z,24.00
2018-03-27T23:44:00.766Z,21.90
2018-03-27T23:46:28.242Z,22.87
2018-03-27T23:48:55.690Z,20.70
2018-03-27T23:51:23.171Z,22.42
2018-03-27T23:53:51.499Z,19.25
2018-03-27T23:56:18.996Z,21.87
2018-03-27T23:58:46.472Z,21.42
